createdAt,value
2022-08-27T00:01:15.347Z,101341.97
2022-08-27T00:04:03.654Z,101342.81
2022-08-27T00:06:46.231Z,101344.53
2022-08-27T00:09:34.461Z,101342.00
2022-08-27T00:12:16.354Z,101344.72
2022-08-27T00:15:06.799Z,101339.47
2022-08-27T00:17:47.359Z,101335.94
2022-08-27T00:20:37.450Z,101334.25
2022-08-27T00:23:19.180Z,101335.19
2022-08-27T00:26:07.567Z,101336.06
2022-08-27T00:28:49.369Z,101332.41
2022-08-27T00:31:36.506Z,101337.06
2022-08-27T00:34:17.377Z,101333.47
2022-08-27T00:37:06.881Z,101334.41
2022-08-27T00:40:01.442Z,101331.75
2022-08-27T00:42:53.472Z,101327.34
2022-08-27T00:45:34.403Z,101325.69
2022-08-27T00:48:26.204Z,101322.25
2022-08-27T00:51:07.383Z,101309.94
2022-08-27T00:53:58.509Z,101312.56
2022-08-27T00:56:51.420Z,101318.53
2022-08-27T00:59:39.019Z,101316.84
2022-08-27T01:02:25.508Z,101307.97
2022-08-27T01:05:17.474Z,101309.16
2022-08-27T01:08:02.375Z,101306.63
2022-08-27T01:10:52.024Z,101306.72
2022-08-27T01:13:58.954Z,101305.72
2022-08-27T01:16:47.679Z,101303.94
2022-08-27T01:19:45.374Z,101304.75
2022-08-27T01:22:54.534Z,101298.56
2022-08-27T01:25:36.386Z,101305.69
2022-08-27T01:28:26.834Z,101299.59
2022-08-27T01:31:20.225Z,101295.22
2022-08-27T01:34:11.311Z,101296.97
2022-08-27T01:36:54.679Z,101303.88
2022-08-27T01:39:47.489Z,101291.53
2022-08-27T01:42:33.395Z,101292.44
2022-08-27T01:45:30.551Z,101289.09
2022-08-27T01:48:17.958Z,101288.28
2022-08-27T01:51:04.500Z,101280.41
2022-08-27T01:53:47.857Z,101277.81
2022-08-27T01:56:36.051Z,101282.31
2022-08-27T01:59:16.840Z,101279.63
2022-08-27T02:02:07.675Z,101283.13
2022-08-27T02:04:48.437Z,101277.91
2022-08-27T02:07:36.540Z,101270.88
2022-08-27T02:10:21.002Z,101271.72
2022-08-27T02:13:09.596Z,101268.13
2022-08-27T02:15:52.466Z,101263.72
2022-08-27T02:18:41.906Z,101264.56
2022-08-27T02:21:24.408Z,101266.44
2022-08-27T02:24:11.540Z,101262.06
2022-08-27T02:26:53.598Z,101260.19
2022-08-27T02:29:42.662Z,101251.50
2022-08-27T02:32:31.615Z,101250.53
2022-08-27T02:35:22.595Z,101239.09
2022-08-27T02:38:04.522Z,101239.97
2022-08-27T02:40:54.134Z,101252.31
2022-08-27T02:43:36.817Z,101252.28
2022-08-27T02:46:23.578Z,101253.25
2022-08-27T02:49:04.837Z,101247.91
2022-08-27T02:51:51.947Z,101251.50
2022-08-27T02:54:33.545Z,101252.31
2022-08-27T02:57:22.734Z,101252.22
2022-08-27T03:00:04.945Z,101255.78
2022-08-27T03:02:52.373Z,101248.81
2022-08-27T03:05:34.450Z,101255.91
2022-08-27T03:08:23.713Z,101261.16
2022-08-27T03:11:05.831Z,101258.34
2022-08-27T03:13:55.870Z,101253.13
2022-08-27T03:16:36.817Z,101248.72
2022-08-27T03:19:26.950Z,101253.94
2022-08-27T03:22:08.477Z,101259.38
2022-08-27T03:24:58.178Z,101256.69
2022-08-27T03:27:39.464Z,101265.50
2022-08-27T03:30:28.564Z,101258.53
2022-08-27T03:33:09.520Z,101255.66
2022-08-27T03:35:58.979Z,101249.63
2022-08-27T03:38:55.483Z,101254.13
2022-08-27T03:41:54.968Z,101248.91
2022-08-27T03:44:38.500Z,101255.94
2022-08-27T03:47:26.898Z,101253.41
2022-08-27T03:50:07.479Z,101245.44
2022-08-27T03:52:56.621Z,101242.81
2022-08-27T03:55:39.745Z,101241.97
2022-08-27T03:58:27.553Z,101253.47
2022-08-27T04:01:08.880Z,101253.53
2022-08-27T04:03:56.560Z,101252.72
2022-08-27T04:06:41.482Z,101241.28
2022-08-27T04:09:30.042Z,101241.28
2022-08-27T04:12:11.482Z,101241.28
2022-08-27T04:14:58.620Z,101237.66
2022-08-27T04:17:41.243Z,101250.00
2022-08-27T04:20:35.430Z,101238.56
2022-08-27T04:23:19.054Z,101234.19
2022-08-27T04:26:06.641Z,101239.53
2022-08-27T04:28:48.860Z,101235.16
2022-08-27T04:31:37.249Z,101233.41
2022-08-27T04:34:18.857Z,101225.50
2022-08-27T04:37:10.575Z,101230.03
2022-08-27T04:39:59.570Z,101226.56
2022-08-27T04:42:40.850Z,101230.09
2022-08-27T04:45:30.015Z,101229.19
2022-08-27T04:48:10.829Z,101235.28
2022-08-27T04:50:58.479Z,101230.00
2022-08-27T04:53:40.496Z,101219.53
2022-08-27T04:56:38.005Z,101219.53
2022-08-27T04:59:24.683Z,101219.56
2022-08-27T05:02:07.975Z,101218.69
2022-08-27T05:04:56.455Z,101223.84
2022-08-27T05:07:37.922Z,101218.63
2022-08-27T05:10:25.626Z,101222.09
2022-08-27T05:13:10.163Z,101215.88
2022-08-27T05:16:05.744Z,101225.53
2022-08-27T05:18:49.512Z,101221.25
2022-08-27T05:21:39.747Z,101219.47
2022-08-27T05:24:25.262Z,101230.06
2022-08-27T05:27:14.165Z,101231.66
2022-08-27T05:29:56.635Z,101226.28
2022-08-27T05:32:44.637Z,101232.34
2022-08-27T05:35:29.791Z,101227.06
2022-08-27T05:38:17.048Z,101235.88
2022-08-27T05:41:17.524Z,101229.75
2022-08-27T05:44:36.787Z,101233.41
2022-08-27T05:47:10.839Z,101228.09
2022-08-27T05:49:59.889Z,101243.09
2022-08-27T05:52:43.279Z,101237.72
2022-08-27T05:55:32.633Z,101244.47
2022-08-27T05:58:13.568Z,101246.25
2022-08-27T06:01:09.404Z,101248.94
2022-08-27T06:03:51.991Z,101249.91
2022-08-27T06:06:45.680Z,101253.66
2022-08-27T06:12:40.054Z,101258.03
2022-08-27T06:15:21.440Z,101255.31
2022-08-27T06:18:08.656Z,101259.84
2022-08-27T06:20:50.123Z,101261.28
2022-08-27T06:23:37.602Z,101257.91
2022-08-27T06:26:21.404Z,101251.13
2022-08-27T06:29:14.264Z,101253.97
2022-08-27T06:31:56.629Z,101249.84
2022-08-27T06:34:45.768Z,101254.34
2022-08-27T06:37:26.586Z,101255.84
2022-08-27T06:40:22.594Z,101254.09
2022-08-27T06:43:11.433Z,101260.06
2022-08-27T06:45:53.586Z,101250.88
2022-08-27T06:48:45.851Z,101247.66
2022-08-27T06:51:30.700Z,101250.50
2022-08-27T06:54:20.385Z,101255.19
2022-08-27T06:57:08.018Z,101256.78
2022-08-27T06:59:55.568Z,101258.31
2022-08-27T07:02:35.915Z,101267.75
2022-08-27T07:05:25.451Z,101257.56
2022-08-27T07:08:07.761Z,101265.25
2022-08-27T07:10:55.975Z,101254.66
2022-08-27T07:13:36.668Z,101259.03
2022-08-27T07:16:30.681Z,101259.06
2022-08-27T07:19:12.300Z,101262.97
2022-08-27T07:22:00.975Z,101262.56
2022-08-27T07:24:41.879Z,101264.78
2022-08-27T07:27:30.330Z,101266.84
2022-08-27T07:30:16.719Z,101266.47
2022-08-27T07:33:04.594Z,101270.59
2022-08-27T07:35:47.055Z,101262.59
2022-08-27T07:38:35.873Z,101266.06
2022-08-27T07:41:27.548Z,101266.19
2022-08-27T07:44:34.439Z,101263.69
2022-08-27T07:47:24.850Z,101256.22
2022-08-27T07:50:07.714Z,101274.75
2022-08-27T07:52:55.480Z,101261.81
2022-08-27T07:55:36.665Z,101265.69
2022-08-27T07:58:26.724Z,101271.41
2022-08-27T08:01:10.857Z,101259.09
2022-08-27T08:03:59.630Z,101270.25
2022-08-27T08:06:43.599Z,101266.09
2022-08-27T08:09:32.284Z,101269.47
2022-08-27T08:12:21.140Z,101271.09
2022-08-27T08:15:18.233Z,101274.47
2022-08-27T08:17:58.842Z,101268.50
2022-08-27T08:20:58.188Z,101269.38
2022-08-27T08:23:43.234Z,101269.31
2022-08-27T08:26:29.780Z,101264.47
2022-08-27T08:29:13.333Z,101269.06
2022-08-27T08:32:05.737Z,101264.13
2022-08-27T08:34:48.206Z,101266.28
2022-08-27T08:37:36.355Z,101262.22
2022-08-27T08:40:47.370Z,101265.47
2022-08-27T08:43:51.697Z,101262.84
2022-08-27T08:46:48.708Z,101261.50
2022-08-27T08:50:19.937Z,101252.66
2022-08-27T08:53:00.748Z,101253.34
2022-08-27T08:55:59.917Z,101255.78
2022-08-27T08:58:57.716Z,101254.47
2022-08-27T09:01:45.966Z,101255.53
2022-08-27T09:04:28.040Z,101261.59
2022-08-27T09:07:26.308Z,101249.16
2022-08-27T09:10:52.398Z,101253.00
2022-08-27T09:13:45.571Z,101262.53
2022-08-27T09:16:26.931Z,101251.78
2022-08-27T09:19:23.989Z,101256.75
2022-08-27T09:22:18.692Z,101257.78
2022-08-27T09:25:39.114Z,101261.91
2022-08-27T09:28:51.160Z,101267.19
2022-08-27T09:31:43.762Z,101259.22
2022-08-27T09:34:26.195Z,101256.00
2022-08-27T09:37:34.596Z,101266.16
2022-08-27T09:40:38.769Z,101255.13
2022-08-27T09:43:22.643Z,101268.69
2022-08-27T09:46:24.807Z,101265.09
2022-08-27T09:49:22.348Z,101253.38
2022-08-27T09:52:09.419Z,101248.13
2022-08-27T09:54:55.815Z,101252.94
2022-08-27T09:57:49.056Z,101249.47
2022-08-27T10:00:46.258Z,101247.50
2022-08-27T10:03:33.521Z,101236.75
2022-08-27T10:06:15.020Z,101243.78
2022-08-27T10:09:23.731Z,101241.78
2022-08-27T10:12:22.222Z,101248.50
2022-08-27T10:15:14.999Z,101247.41
2022-08-27T10:18:22.821Z,101244.91
2022-08-27T10:21:34.691Z,101240.22
2022-08-27T10:24:40.907Z,101233.72
2022-08-27T10:27:40.383Z,101224.09
2022-08-27T10:30:29.386Z,101221.66
2022-08-27T10:33:48.877Z,101223.41
2022-08-27T10:36:31.872Z,101221.44
2022-08-27T10:39:29.710Z,101215.34
2022-08-27T10:42:37.816Z,101211.38
2022-08-27T10:45:42.235Z,101208.09
2022-08-27T10:48:44.828Z,101203.50
2022-08-27T10:51:30.778Z,101205.66
2022-08-27T10:54:50.837Z,101211.03
2022-08-27T10:57:55.552Z,101206.69
2022-08-27T11:01:04.152Z,101198.72
2022-08-27T11:03:48.725Z,101200.03
2022-08-27T11:06:48.827Z,101200.63
2022-08-27T11:09:57.777Z,101196.81
2022-08-27T11:12:51.394Z,101198.41
2022-08-27T11:15:42.968Z,101190.44
2022-08-27T11:18:40.889Z,101187.38
2022-08-27T11:21:31.787Z,101182.94
2022-08-27T11:24:57.437Z,101188.38
2022-08-27T11:27:40.809Z,101188.00
2022-08-27T11:30:45.895Z,101174.81
2022-08-27T11:33:37.155Z,101178.03
2022-08-27T11:37:04.904Z,101179.06
2022-08-27T11:40:25.194Z,101177.41
2022-08-27T11:43:19.927Z,101176.66
2022-08-27T11:46:10.746Z,101175.78
2022-08-27T11:49:05.918Z,101169.69
2022-08-27T11:51:47.840Z,101165.94
2022-08-27T11:54:53.066Z,101164.16
2022-08-27T11:57:34.164Z,101157.75
2022-08-27T12:00:28.054Z,101152.13
2022-08-27T12:03:11.944Z,101152.31
2022-08-27T12:06:01.958Z,101149.53
2022-08-27T12:08:45.167Z,101151.53
2022-08-27T12:11:56.513Z,101144.44
2022-08-27T12:15:00.262Z,101148.06
2022-08-27T12:18:14.905Z,101149.41
2022-08-27T12:24:49.291Z,101143.69
2022-08-27T12:27:41.831Z,101143.09
2022-08-27T12:30:37.870Z,101144.06
2022-08-27T12:33:20.773Z,101141.88
2022-08-27T12:36:27.970Z,101135.16
2022-08-27T12:39:24.492Z,101131.06
2022-08-27T12:42:19.947Z,101128.94
2022-08-27T12:45:02.795Z,101138.97
2022-08-27T12:47:51.672Z,101137.41
2022-08-27T12:50:36.908Z,101129.69
2022-08-27T12:53:41.526Z,101135.31
2022-08-27T12:56:52.794Z,101125.28
2022-08-27T12:59:50.103Z,101120.16
2022-08-27T13:02:51.884Z,101124.72
2022-08-27T13:05:57.650Z,101121.38
2022-08-27T13:08:41.424Z,101126.69
2022-08-27T13:11:33.226Z,101114.69
2022-08-27T13:14:18.181Z,101115.47
2022-08-27T13:17:11.903Z,101105.25
2022-08-27T13:19:59.832Z,101093.41
2022-08-27T13:23:01.281Z,101090.66
2022-08-27T13:25:48.290Z,101095.28
2022-08-27T13:28:34.119Z,101093.84
2022-08-27T13:31:27.779Z,101088.31
2022-08-27T13:34:11.904Z,101081.38
2022-08-27T13:37:14.831Z,101083.91
2022-08-27T13:40:00.507Z,101090.69
2022-08-27T13:42:51.976Z,101091.00
2022-08-27T13:45:33.108Z,101085.22
2022-08-27T13:48:25.987Z,101080.50
2022-08-27T13:51:09.166Z,101076.91
2022-08-27T13:54:15.067Z,101084.34
2022-08-27T13:56:57.932Z,101081.25
2022-08-27T13:59:47.747Z,101083.50
2022-08-27T14:02:34.628Z,101078.66
2022-08-27T14:05:36.157Z,101078.31
2022-08-27T14:08:25.574Z,101079.56
2022-08-27T14:11:17.324Z,101086.66
2022-08-27T14:14:00.419Z,101078.88
2022-08-27T14:16:49.916Z,101072.19
2022-08-27T14:19:40.228Z,101070.88
2022-08-27T14:22:27.608Z,101069.34
2022-08-27T14:25:09.346Z,101069.50
2022-08-27T14:28:01.190Z,101063.44
2022-08-27T14:30:42.509Z,101066.22
2022-08-27T14:33:31.779Z,101056.53
2022-08-27T14:36:13.452Z,101048.59
2022-08-27T14:39:00.816Z,101052.66
2022-08-27T14:41:45.602Z,101045.66
2022-08-27T14:44:36.367Z,101042.25
2022-08-27T14:47:18.494Z,101050.19
2022-08-27T14:50:05.490Z,101050.84
2022-08-27T14:52:47.317Z,101049.41
2022-08-27T14:55:38.324Z,101049.19
2022-08-27T14:58:19.468Z,101051.00
2022-08-27T15:01:10.466Z,101046.91
2022-08-27T15:03:55.934Z,101035.13
2022-08-27T15:06:47.134Z,101039.19
2022-08-27T15:09:29.529Z,101035.47
2022-08-27T15:12:25.770Z,101038.63
2022-08-27T15:15:08.172Z,101031.25
2022-08-27T15:17:56.379Z,101042.00
2022-08-27T15:20:51.350Z,101034.84
2022-08-27T15:23:39.391Z,101030.13
2022-08-27T15:26:21.944Z,101033.91
2022-08-27T15:29:08.481Z,101034.91
2022-08-27T15:31:49.483Z,101024.47
2022-08-27T15:34:37.326Z,101021.63
2022-08-27T15:37:20.191Z,101021.88
2022-08-27T15:40:12.388Z,101012.97
2022-08-27T15:42:59.636Z,101015.91
2022-08-27T15:45:48.400Z,101026.81
2022-08-27T15:48:30.028Z,101007.88
2022-08-27T15:51:21.653Z,101015.44
2022-08-27T15:54:04.454Z,101016.88
2022-08-27T15:56:51.822Z,101005.13
2022-08-27T15:59:33.364Z,101007.88
2022-08-27T16:02:32.012Z,101001.41
2022-08-27T16:05:13.889Z,101008.88
2022-08-27T16:08:01.884Z,101000.56
2022-08-27T16:10:43.315Z,100999.44
2022-08-27T16:13:31.819Z,100999.72
2022-08-27T16:16:13.557Z,101016.75
2022-08-27T16:19:01.307Z,101010.13
2022-08-27T16:21:51.109Z,101019.97
2022-08-27T16:24:32.770Z,101011.47
2022-08-27T16:27:19.487Z,101010.16
2022-08-27T16:30:00.682Z,101005.75
2022-08-27T16:32:47.971Z,101006.03
2022-08-27T16:35:30.203Z,100998.56
2022-08-27T16:38:18.577Z,100990.06
2022-08-27T16:41:01.540Z,100991.63
2022-08-27T16:43:49.311Z,100987.34
2022-08-27T16:46:30.941Z,100988.59
2022-08-27T16:49:38.120Z,100988.78
2022-08-27T16:52:19.590Z,100984.38
2022-08-27T16:55:07.822Z,100985.34
2022-08-27T16:57:48.417Z,100973.66
2022-08-27T17:00:36.526Z,100978.72
2022-08-27T17:03:18.430Z,100977.38
2022-08-27T17:06:07.671Z,100974.88
2022-08-27T17:08:52.883Z,100977.97
2022-08-27T17:11:44.604Z,100974.38
2022-08-27T17:14:26.198Z,100978.31
2022-08-27T17:17:15.084Z,100970.19
2022-08-27T17:19:56.073Z,100975.22
2022-08-27T17:22:46.590Z,100966.78
2022-08-27T17:25:30.035Z,100957.69
2022-08-27T17:28:17.699Z,100965.50
2022-08-27T17:30:58.670Z,100948.38
2022-08-27T17:33:51.599Z,100961.00
2022-08-27T17:36:37.097Z,100955.81
2022-08-27T17:39:25.605Z,100952.19
2022-08-27T17:42:06.844Z,100954.53
2022-08-27T17:44:53.547Z,100967.28
2022-08-27T17:47:35.591Z,100959.09
2022-08-27T17:50:26.130Z,100963.22
2022-08-27T17:53:07.965Z,100965.03
2022-08-27T17:55:54.565Z,100962.44
2022-08-27T17:58:36.472Z,100964.63
2022-08-27T18:01:32.062Z,100968.13
2022-08-27T18:04:13.775Z,100965.91
2022-08-27T18:07:02.575Z,100966.16
2022-08-27T18:09:43.453Z,100963.56
2022-08-27T18:12:34.006Z,100965.22
2022-08-27T18:15:25.899Z,100973.47
2022-08-27T18:18:13.791Z,100970.63
2022-08-27T18:21:10.854Z,100976.94
2022-08-27T18:23:59.380Z,100974.09
2022-08-27T18:26:42.861Z,100978.94
2022-08-27T18:29:30.596Z,100976.44
2022-08-27T18:32:12.684Z,100981.56
2022-08-27T18:35:02.386Z,100992.78
2022-08-27T18:37:45.255Z,100991.75
2022-08-27T18:40:37.665Z,100988.44
2022-08-27T18:43:22.724Z,100992.94
2022-08-27T18:46:13.839Z,100991.00
2022-08-27T18:48:55.487Z,101004.41
2022-08-27T18:51:48.080Z,101001.84
2022-08-27T18:54:33.488Z,101008.69
2022-08-27T18:57:20.673Z,101010.28
2022-08-27T19:00:01.519Z,101011.34
2022-08-27T19:02:52.729Z,101011.56
2022-08-27T19:05:33.498Z,101014.16
2022-08-27T19:08:25.651Z,101013.81
2022-08-27T19:11:06.518Z,101009.88
2022-08-27T19:13:54.731Z,101022.56
2022-08-27T19:16:50.636Z,101029.63
2022-08-27T19:19:39.280Z,101025.88
2022-08-27T19:22:28.484Z,101031.41
2022-08-27T19:25:09.841Z,101026.63
2022-08-27T19:27:59.872Z,101033.31
2022-08-27T19:30:42.524Z,101028.53
2022-08-27T19:33:30.583Z,101038.19
2022-08-27T19:36:15.796Z,101034.78
2022-08-27T19:39:03.544Z,101037.03
2022-08-27T19:41:44.884Z,101047.28
2022-08-27T19:44:32.884Z,101039.53
2022-08-27T19:47:15.704Z,101047.28
2022-08-27T19:50:06.956Z,101044.19
2022-08-27T19:52:48.459Z,101047.09
2022-08-27T19:55:35.524Z,101051.44
2022-08-27T19:58:16.669Z,101073.06
2022-08-27T20:01:05.536Z,101072.22
2022-08-27T20:03:47.097Z,101072.69
2022-08-27T20:06:35.147Z,101074.28
2022-08-27T20:09:17.984Z,101076.88
2022-08-27T20:12:06.290Z,101080.59
2022-08-27T20:14:51.705Z,101084.19
2022-08-27T20:17:41.299Z,101094.78
2022-08-27T20:20:25.680Z,101090.69
2022-08-27T20:23:14.561Z,101107.00
2022-08-27T20:26:01.179Z,101113.63
2022-08-27T20:28:48.600Z,101112.75
2022-08-27T20:31:30.386Z,101111.66
2022-08-27T20:37:25.950Z,101120.78
2022-08-27T20:40:27.046Z,101120.97
2022-08-27T20:43:07.704Z,101121.78
2022-08-27T20:45:57.718Z,101125.09
2022-08-27T20:48:38.958Z,101128.41
2022-08-27T20:51:27.362Z,101134.44
2022-08-27T20:54:08.705Z,101132.28
2022-08-27T20:56:56.673Z,101131.78
2022-08-27T20:59:58.355Z,101140.88
2022-08-27T21:02:47.937Z,101133.09
2022-08-27T21:05:28.691Z,101133.09
2022-08-27T21:08:16.716Z,101142.63
2022-08-27T21:11:03.416Z,101138.09
2022-08-27T21:13:56.399Z,101138.09
2022-08-27T21:16:37.690Z,101143.47
2022-08-27T21:22:19.566Z,101145.19
2022-08-27T21:25:08.150Z,101146.31
2022-08-27T21:27:48.706Z,101152.69
2022-08-27T21:30:36.653Z,101145.72
2022-08-27T21:33:18.526Z,101149.34
2022-08-27T21:36:10.013Z,101155.69
2022-08-27T21:38:52.870Z,101148.56
2022-08-27T21:41:39.800Z,101142.56
2022-08-27T21:44:25.385Z,101146.38
2022-08-27T21:47:14.477Z,101146.31
2022-08-27T21:49:55.684Z,101149.94
2022-08-27T21:52:43.602Z,101152.81
2022-08-27T21:55:24.772Z,101148.63
2022-08-27T21:58:13.078Z,101144.50
2022-08-27T22:00:55.800Z,101143.88
2022-08-27T22:03:46.912Z,101150.81
2022-08-27T22:06:28.852Z,101151.66
2022-08-27T22:09:16.601Z,101143.72
2022-08-27T22:11:58.741Z,101145.41
2022-08-27T22:14:47.613Z,101147.44
2022-08-27T22:17:29.124Z,101148.41
2022-08-27T22:20:18.153Z,101146.91
2022-08-27T22:23:05.715Z,101140.81
2022-08-27T22:25:50.880Z,101143.50
2022-08-27T22:28:38.202Z,101141.97
2022-08-27T22:31:18.927Z,101146.34
2022-08-27T22:34:08.231Z,101151.56
2022-08-27T22:37:03.429Z,101146.47
2022-08-27T22:39:56.104Z,101159.94
2022-08-27T22:42:43.826Z,101153.84
2022-08-27T22:45:32.079Z,101152.19
2022-08-27T22:48:12.948Z,101148.81
2022-08-27T22:51:02.872Z,101151.50
2022-08-27T22:53:49.381Z,101155.13
2022-08-27T22:56:56.014Z,101155.13
2022-08-27T22:59:44.147Z,101151.84
2022-08-27T23:02:33.053Z,101151.88
2022-08-27T23:05:13.870Z,101156.44
2022-08-27T23:08:01.857Z,101170.69
2022-08-27T23:10:43.740Z,101157.53
2022-08-27T23:13:31.601Z,101161.16
2022-08-27T23:16:16.128Z,101163.06
2022-08-27T23:19:03.751Z,101159.69
2022-08-27T23:22:00.588Z,101165.13
2022-08-27T23:25:08.856Z,101165.22
2022-08-27T23:27:49.838Z,101166.28
2022-08-27T23:30:38.779Z,101170.66
2022-08-27T23:33:20.644Z,101158.41
2022-08-27T23:36:10.775Z,101168.09
2022-08-27T23:38:53.124Z,101168.13
2022-08-27T23:41:39.751Z,101162.00
2022-08-27T23:44:20.688Z,101172.72
2022-08-27T23:47:11.604Z,101170.94
2022-08-27T23:49:53.405Z,101175.38
2022-08-27T23:52:40.742Z,101169.25
2022-08-27T23:55:21.666Z,101178.16
2022-08-27T23:58:11.234Z,101165.94
